Time;durP1;ratioP1;P1;durP2;ratioP2;P2;SDS_P1;SDS_P2;PMS_P1;PMS_P2;Temp;Humidity;BMP_temperature;BMP_pressure;BME280_temperature;BME280_humidity;BME280_pressure;Samples;Min_cycle;Max_cycle;Signal;HPM_P1;HPM_P2
2023/12/10 00:01:04;;;;;;;13.97;8.43;;;21.50;56.20;;;;;;4987568;28;20288;-67
2023/12/10 00:03:29;;;;;;;12.83;8.67;;;21.50;56.30;;;;;;4987293;28;20228;-67
2023/12/10 00:05:55;;;;;;;12.83;8.03;;;21.50;56.30;;;;;;4987348;28;20843;-65
2023/12/10 00:08:20;;;;;;;13.23;8.10;;;21.50;56.30;;;;;;4988936;28;20176;-68
2023/12/10 00:10:46;;;;;;;12.63;8.30;;;21.50;56.80;;;;;;4990291;28;20173;-68
2023/12/10 00:13:12;;;;;;;15.13;8.43;;;21.50;56.30;;;;;;4993304;28;20659;-67
2023/12/10 00:15:38;;;;;;;16.47;8.50;;;21.50;56.30;;;;;;4992316;28;20204;-67
2023/12/10 00:18:05;;;;;;;13.83;8.93;;;21.50;56.30;;;;;;4992379;28;20552;-67
2023/12/10 00:20:31;;;;;;;10.93;8.20;;;21.50;56.30;;;;;;4976225;28;20416;-68
2023/12/10 00:22:57;;;;;;;16.37;9.13;;;21.50;56.40;;;;;;5008851;28;20493;-68
2023/12/10 00:25:25;;;;;;;21.90;10.60;;;21.50;56.40;;;;;;5013058;28;20211;-68
2023/12/10 00:27:51;;;;;;;13.33;9.07;;;21.40;56.30;;;;;;5011928;28;20177;-67
2023/12/10 00:30:17;;;;;;;13.90;8.93;;;21.40;56.30;;;;;;5011882;28;20418;-67
2023/12/10 00:32:43;;;;;;;16.40;8.20;;;21.40;56.30;;;;;;5013194;28;20283;-67
2023/12/10 00:35:09;;;;;;;11.97;8.70;;;21.40;56.30;;;;;;5011536;28;20510;-67
2023/12/10 00:37:34;;;;;;;14.03;8.20;;;21.40;56.30;;;;;;4995510;28;20270;-67
2023/12/10 00:40:00;;;;;;;11.80;8.03;;;21.40;56.30;;;;;;5012990;28;20172;-67
2023/12/10 00:42:28;;;;;;;15.40;8.23;;;21.40;56.40;;;;;;5011478;28;20332;-67
2023/12/10 00:44:54;;;;;;;15.67;9.40;;;21.40;56.40;;;;;;5011452;28;20169;-67
2023/12/10 00:47:20;;;;;;;13.10;8.80;;;21.40;56.40;;;;;;5011574;28;20827;-67
2023/12/10 00:49:45;;;;;;;12.87;8.50;;;21.40;56.40;;;;;;5011480;28;20179;-68
2023/12/10 00:52:11;;;;;;;14.20;7.33;;;21.40;56.40;;;;;;4995092;28;20172;-67
2023/12/10 00:54:36;;;;;;;13.20;8.13;;;21.40;56.50;;;;;;5012704;28;20837;-67
2023/12/10 00:57:02;;;;;;;12.63;9.17;;;21.40;56.40;;;;;;5012519;28;20199;-67
2023/12/10 00:59:28;;;;;;;14.63;9.10;;;21.40;56.50;;;;;;5012563;28;20169;-67
2023/12/10 01:01:53;;;;;;;13.97;8.10;;;21.40;56.40;;;;;;4994285;28;20233;-67
2023/12/10 01:04:19;;;;;;;14.93;8.67;;;21.40;56.40;;;;;;4973498;28;20181;-67
2023/12/10 01:06:46;;;;;;;13.53;8.20;;;21.40;56.50;;;;;;4981009;28;20199;-67
2023/12/10 01:09:15;;;;;;;18.73;8.97;;;21.40;56.50;;;;;;4991781;28;20259;-67
2023/12/10 01:11:41;;;;;;;15.07;8.83;;;21.40;56.50;;;;;;4991588;28;20456;-67
2023/12/10 01:14:06;;;;;;;13.10;9.33;;;21.30;56.40;;;;;;4991479;28;20818;-67
2023/12/10 01:16:32;;;;;;;15.37;9.50;;;21.30;56.40;;;;;;4973805;28;20489;-67
2023/12/10 01:18:58;;;;;;;12.17;7.70;;;21.40;56.50;;;;;;4992741;28;20640;-67
2023/12/10 01:21:23;;;;;;;13.30;8.37;;;21.40;56.50;;;;;;4975044;28;20216;-68
2023/12/10 01:23:54;;;;;;;14.83;8.33;;;21.30;56.40;;;;;;4974185;28;20173;-66
2023/12/10 01:26:20;;;;;;;13.67;9.03;;;21.30;56.40;;;;;;4992274;28;20706;-67
2023/12/10 01:28:46;;;;;;;13.20;8.30;;;21.30;56.40;;;;;;4991090;28;21010;-67
2023/12/10 01:31:11;;;;;;;13.40;7.97;;;21.30;56.50;;;;;;4990581;28;20462;-67
2023/12/10 01:33:39;;;;;;;15.70;9.00;;;21.30;56.50;;;;;;4975712;28;20217;-68
2023/12/10 01:36:05;;;;;;;13.10;7.53;;;21.30;56.50;;;;;;5011836;28;20446;-67
2023/12/10 01:38:31;;;;;;;13.20;8.50;;;21.30;56.50;;;;;;5011884;28;20403;-67
2023/12/10 01:40:56;;;;;;;12.97;8.37;;;21.30;56.50;;;;;;4993972;28;20466;-67
2023/12/10 01:43:22;;;;;;;13.20;8.50;;;21.30;56.50;;;;;;5011948;28;20200;-67
2023/12/10 01:45:50;;;;;;;10.87;7.37;;;21.30;56.50;;;;;;5003235;28;20212;-67
2023/12/10 01:48:19;;;;;;;13.50;7.70;;;21.30;56.60;;;;;;4990844;28;20876;-67
2023/12/10 01:50:47;;;;;;;11.77;7.50;;;21.30;56.60;;;;;;4992258;28;20818;-67
2023/12/10 01:53:14;;;;;;;15.70;8.53;;;21.30;56.60;;;;;;4990720;28;20451;-67
2023/12/10 01:55:41;;;;;;;14.30;7.90;;;21.30;56.60;;;;;;4991898;28;20440;-67
2023/12/10 01:58:08;;;;;;;9.67;7.43;;;21.20;56.50;;;;;;4993104;28;20420;-67
2023/12/10 02:00:35;;;;;;;12.90;7.47;;;21.30;56.60;;;;;;5011328;28;20451;-67
2023/12/10 02:03:02;;;;;;;9.23;6.87;;;21.30;56.60;;;;;;4993256;28;20496;-67
2023/12/10 02:05:28;;;;;;;12.80;8.10;;;21.20;56.50;;;;;;5011280;28;20459;-67
2023/12/10 02:07:54;;;;;;;11.10;8.30;;;21.20;56.60;;;;;;5010023;28;20415;-67
2023/12/10 02:10:20;;;;;;;10.43;7.63;;;21.20;56.60;;;;;;4993661;28;20479;-68
2023/12/10 02:12:47;;;;;;;14.07;8.03;;;21.20;56.60;;;;;;5011263;28;20648;-67
2023/12/10 02:15:17;;;;;;;11.93;7.30;;;21.20;56.60;;;;;;4993513;28;20198;-67
2023/12/10 02:17:44;;;;;;;10.03;6.90;;;21.20;56.60;;;;;;5009797;28;20411;-67
2023/12/10 02:20:13;;;;;;;8.50;6.53;;;21.20;56.60;;;;;;5009980;28;20411;-68
2023/12/10 02:23:06;;;;;;;12.97;8.33;;;21.20;56.60;;;;;;4993804;28;20598;-67
2023/12/10 02:25:34;;;;;;;14.80;8.03;;;21.20;56.60;;;;;;5010903;28;20443;-66
2023/12/10 02:28:02;;;;;;;11.23;7.70;;;21.20;56.60;;;;;;5011031;28;20395;-66
2023/12/10 02:30:28;;;;;;;14.73;7.73;;;21.20;56.60;;;;;;5010942;28;20407;-67
2023/12/10 02:32:54;;;;;;;11.53;7.83;;;21.20;56.60;;;;;;5009689;28;20415;-67
2023/12/10 02:35:19;;;;;;;11.57;7.70;;;21.20;56.60;;;;;;5009494;28;20302;-68
2023/12/10 02:37:45;;;;;;;8.87;6.63;;;21.20;56.60;;;;;;5009645;28;20177;-67
2023/12/10 02:40:11;;;;;;;12.77;7.93;;;21.20;56.60;;;;;;5009509;28;20199;-67
2023/12/10 02:42:37;;;;;;;11.53;7.40;;;21.20;56.60;;;;;;5010692;28;20283;-67
2023/12/10 02:45:03;;;;;;;11.00;7.53;;;21.20;56.60;;;;;;5009456;28;20231;-67
2023/12/10 02:47:28;;;;;;;11.87;7.33;;;21.20;56.60;;;;;;5010699;28;20414;-67
2023/12/10 02:49:54;;;;;;;10.90;7.77;;;21.20;56.60;;;;;;5010834;28;20498;-68
2023/12/10 02:52:23;;;;;;;11.77;7.17;;;21.20;56.60;;;;;;5009215;28;20227;-67
2023/12/10 02:54:48;;;;;;;13.00;6.50;;;21.20;56.60;;;;;;5010661;28;20647;-68
2023/12/10 02:57:14;;;;;;;9.70;6.37;;;21.20;56.70;;;;;;5009274;28;20439;-67
2023/12/10 02:59:40;;;;;;;9.33;6.60;;;21.20;56.70;;;;;;5009313;28;20561;-67
2023/12/10 03:02:06;;;;;;;12.10;7.50;;;21.20;56.70;;;;;;5009057;28;20210;-67
2023/12/10 03:04:31;;;;;;;9.53;6.77;;;21.10;56.60;;;;;;5009247;28;20902;-67
2023/12/10 03:06:57;;;;;;;10.80;6.30;;;21.10;56.60;;;;;;5010370;28;20199;-67
2023/12/10 03:09:23;;;;;;;10.50;6.53;;;21.10;56.60;;;;;;5010503;28;20172;-67
2023/12/10 03:11:48;;;;;;;10.43;6.60;;;21.10;56.60;;;;;;5009131;28;20218;-67
2023/12/10 03:14:14;;;;;;;13.03;7.40;;;21.10;56.60;;;;;;5010225;28;20183;-67
2023/12/10 03:16:40;;;;;;;9.23;5.60;;;21.10;56.60;;;;;;5010531;28;20610;-67
2023/12/10 03:19:05;;;;;;;10.70;7.77;;;21.10;56.60;;;;;;5010529;28;20254;-67
2023/12/10 03:21:31;;;;;;;13.47;6.80;;;21.10;56.60;;;;;;5010686;28;20295;-68
2023/12/10 03:23:56;;;;;;;10.50;7.13;;;21.10;56.60;;;;;;5010636;28;20179;-67
2023/12/10 03:26:22;;;;;;;8.67;6.87;;;21.10;56.60;;;;;;5008981;28;20219;-67
2023/12/10 03:28:48;;;;;;;8.80;6.83;;;21.10;56.60;;;;;;5010249;28;20650;-67
2023/12/10 03:31:13;;;;;;;9.80;6.13;;;21.10;56.60;;;;;;5008840;28;20187;-67
2023/12/10 03:33:39;;;;;;;8.90;6.10;;;21.10;56.60;;;;;;5009163;28;20179;-67
2023/12/10 03:36:05;;;;;;;12.00;7.30;;;21.10;56.60;;;;;;5008889;28;20254;-67
2023/12/10 03:38:31;;;;;;;11.03;6.90;;;21.10;56.60;;;;;;5010054;28;20179;-66
2023/12/10 03:40:57;;;;;;;9.70;5.80;;;21.10;56.60;;;;;;5008711;28;20454;-67
2023/12/10 03:43:22;;;;;;;11.97;6.50;;;21.10;56.60;;;;;;5008924;28;20411;-66
2023/12/10 03:45:48;;;;;;;10.20;6.30;;;21.10;56.60;;;;;;5010535;28;20192;-67
2023/12/10 03:48:14;;;;;;;9.37;6.13;;;21.10;56.60;;;;;;5013708;28;20237;-67
2023/12/10 03:50:39;;;;;;;8.07;5.30;;;21.10;56.60;;;;;;5012619;28;20647;-67
2023/12/10 03:53:05;;;;;;;8.33;5.70;;;21.10;56.60;;;;;;5013788;28;20319;-67
2023/12/10 03:55:31;;;;;;;10.20;5.80;;;21.10;57.10;;;;;;5013634;28;20275;-67
2023/12/10 03:57:56;;;;;;;8.73;6.27;;;21.10;57.20;;;;;;5012420;28;20169;-68
2023/12/10 04:00:22;;;;;;;9.37;5.07;;;21.10;56.60;;;;;;5012312;28;20204;-67
2023/12/10 04:02:47;;;;;;;8.30;6.23;;;21.10;56.60;;;;;;4979693;28;20207;-67
2023/12/10 04:05:13;;;;;;;9.77;5.67;;;21.10;56.60;;;;;;5013526;28;20211;-67
2023/12/10 04:07:39;;;;;;;8.60;5.67;;;21.10;56.60;;;;;;4995842;28;20250;-67
2023/12/10 04:10:06;;;;;;;8.33;5.57;;;21.10;56.60;;;;;;5013356;28;20173;-67
2023/12/10 04:12:32;;;;;;;6.80;5.83;;;21.10;56.60;;;;;;5012139;28;20176;-67
2023/12/10 04:14:58;;;;;;;7.10;5.43;;;21.10;56.60;;;;;;5013229;28;20470;-67
2023/12/10 04:17:23;;;;;;;10.37;6.03;;;21.00;56.50;;;;;;5012051;28;20184;-67
2023/12/10 04:19:49;;;;;;;8.73;5.97;;;21.10;56.60;;;;;;5013485;28;20258;-67
2023/12/10 04:22:15;;;;;;;7.87;4.80;;;21.00;56.50;;;;;;5013326;28;20230;-67
2023/12/10 04:24:41;;;;;;;9.47;5.80;;;21.00;56.50;;;;;;5011880;28;20195;-67
2023/12/10 04:27:07;;;;;;;7.87;4.90;;;21.00;56.50;;;;;;4995376;28;20196;-68
2023/12/10 04:29:33;;;;;;;8.23;4.97;;;21.10;56.60;;;;;;5013464;28;20964;-67
2023/12/10 04:31:58;;;;;;;7.43;4.90;;;21.00;56.50;;;;;;5011756;28;20267;-67
2023/12/10 04:34:24;;;;;;;7.37;5.47;;;21.10;56.60;;;;;;5011552;28;20184;-67
2023/12/10 04:36:50;;;;;;;7.40;5.70;;;21.00;56.50;;;;;;5013042;28;20196;-67
2023/12/10 04:39:16;;;;;;;7.40;4.70;;;21.00;56.50;;;;;;5011922;28;20268;-67
2023/12/10 04:41:41;;;;;;;7.90;4.97;;;21.00;56.50;;;;;;5011470;28;20207;-67
2023/12/10 04:44:07;;;;;;;6.20;4.73;;;21.00;56.50;;;;;;5011487;28;20210;-68
2023/12/10 04:46:33;;;;;;;6.63;4.63;;;21.00;56.50;;;;;;5013059;28;20211;-68
2023/12/10 04:48:58;;;;;;;7.40;5.37;;;21.00;56.50;;;;;;5011435;28;20184;-68
2023/12/10 04:51:24;;;;;;;7.73;5.40;;;21.00;56.50;;;;;;5011374;28;20189;-67
2023/12/10 04:53:50;;;;;;;6.60;4.47;;;21.00;56.50;;;;;;4995084;28;20546;-67
2023/12/10 04:56:17;;;;;;;6.27;4.63;;;21.00;56.50;;;;;;5011194;28;20204;-67
2023/12/10 04:58:42;;;;;;;5.77;4.50;;;21.00;56.50;;;;;;5011368;28;20879;-66
2023/12/10 05:01:08;;;;;;;9.07;4.77;;;21.00;56.50;;;;;;5012421;28;20542;-67
2023/12/10 05:03:34;;;;;;;6.93;4.60;;;21.00;56.50;;;;;;5012593;28;20263;-67
2023/12/10 05:06:00;;;;;;;7.10;4.63;;;21.00;56.50;;;;;;5011121;28;20291;-67
2023/12/10 05:08:26;;;;;;;6.83;4.37;;;21.00;56.50;;;;;;5012403;28;20176;-67
2023/12/10 05:10:52;;;;;;;10.50;5.03;;;21.00;56.50;;;;;;5012442;28;20490;-67
2023/12/10 05:13:17;;;;;;;10.33;5.00;;;21.00;56.50;;;;;;5012698;28;20187;-67
2023/12/10 05:15:43;;;;;;;8.03;5.00;;;21.00;56.50;;;;;;5012299;28;20200;-67
2023/12/10 05:18:08;;;;;;;6.30;4.63;;;21.00;56.50;;;;;;5012287;28;20172;-66
2023/12/10 05:20:34;;;;;;;7.10;5.07;;;21.00;56.50;;;;;;5012272;28;20217;-67
2023/12/10 05:23:00;;;;;;;7.80;4.67;;;21.00;56.50;;;;;;5012002;28;20271;-67
2023/12/10 05:25:29;;;;;;;8.10;5.47;;;21.00;56.50;;;;;;5011952;28;21081;-67
2023/12/10 05:27:55;;;;;;;5.17;4.10;;;20.90;56.50;;;;;;5011967;28;20610;-67
2023/12/10 05:30:21;;;;;;;5.63;4.40;;;21.00;56.60;;;;;;5011942;28;20486;-67
2023/12/10 05:32:47;;;;;;;6.83;4.47;;;20.90;56.50;;;;;;5011897;28;20280;-67
2023/12/10 05:35:12;;;;;;;7.70;4.00;;;21.00;56.60;;;;;;5012155;28;20418;-67
2023/12/10 05:37:38;;;;;;;6.07;5.17;;;20.90;56.50;;;;;;5011870;28;20659;-68
2023/12/10 05:40:04;;;;;;;7.07;4.30;;;21.00;56.60;;;;;;5011693;28;20181;-67
2023/12/10 05:42:30;;;;;;;6.50;4.43;;;20.90;56.50;;;;;;5011672;28;20207;-67
2023/12/10 05:44:55;;;;;;;5.70;4.50;;;20.90;56.50;;;;;;5011602;28;20415;-66
2023/12/10 05:47:22;;;;;;;7.20;4.47;;;20.90;56.50;;;;;;5011657;28;20176;-67
2023/12/10 05:49:47;;;;;;;6.00;3.67;;;20.90;56.50;;;;;;5011769;28;20173;-67
2023/12/10 05:52:13;;;;;;;5.23;3.70;;;20.90;56.50;;;;;;5011742;28;20439;-67
2023/12/10 05:54:39;;;;;;;6.37;4.17;;;20.90;56.50;;;;;;5011583;28;20180;-67
2023/12/10 05:57:04;;;;;;;6.37;4.23;;;20.90;56.50;;;;;;5011450;28;20269;-67
2023/12/10 05:59:30;;;;;;;5.93;3.83;;;20.90;56.50;;;;;;5011473;28;20314;-67
2023/12/10 06:01:56;;;;;;;6.43;4.40;;;20.90;56.50;;;;;;5011331;28;20211;-67
2023/12/10 06:04:22;;;;;;;7.87;5.10;;;20.90;56.50;;;;;;5011385;28;20179;-67
2023/12/10 06:06:48;;;;;;;5.03;3.50;;;20.90;56.50;;;;;;5011431;28;20431;-67
2023/12/10 06:09:14;;;;;;;6.43;3.90;;;20.90;56.50;;;;;;5010918;28;20176;-68
2023/12/10 06:11:40;;;;;;;5.20;3.87;;;20.90;56.50;;;;;;5011282;28;20423;-68
2023/12/10 06:14:06;;;;;;;5.07;3.80;;;20.90;56.50;;;;;;5011338;28;20407;-67
2023/12/10 06:16:31;;;;;;;5.73;3.30;;;20.90;56.50;;;;;;5011254;28;20968;-67
2023/12/10 06:18:57;;;;;;;6.40;4.20;;;20.90;56.50;;;;;;5010812;28;20187;-67
2023/12/10 06:21:23;;;;;;;5.20;3.23;;;20.90;56.50;;;;;;5011025;28;20216;-67
2023/12/10 06:23:48;;;;;;;5.43;3.63;;;20.90;56.50;;;;;;5011404;28;20176;-67
2023/12/10 06:26:14;;;;;;;4.20;2.83;;;20.90;56.50;;;;;;5011005;28;20227;-68
2023/12/10 06:28:40;;;;;;;5.50;4.13;;;20.90;56.50;;;;;;5011077;28;20252;-67
2023/12/10 06:31:06;;;;;;;5.37;3.63;;;20.90;56.40;;;;;;5011015;28;20203;-67
2023/12/10 06:33:31;;;;;;;4.47;3.50;;;20.90;56.40;;;;;;5010887;28;20211;-67
2023/12/10 06:35:57;;;;;;;5.83;3.63;;;20.90;56.50;;;;;;5010877;28;20710;-67
2023/12/10 06:38:23;;;;;;;5.10;3.60;;;20.90;56.40;;;;;;5010817;28;20288;-67
2023/12/10 06:40:48;;;;;;;5.33;3.50;;;20.90;56.40;;;;;;5010800;28;20208;-67
2023/12/10 06:43:14;;;;;;;5.23;4.00;;;20.90;56.40;;;;;;5010753;28;20211;-67
2023/12/10 06:45:39;;;;;;;4.80;3.70;;;20.90;56.40;;;;;;5010579;28;20646;-67
2023/12/10 06:48:06;;;;;;;4.23;3.17;;;20.90;56.40;;;;;;5010603;28;20182;-67
2023/12/10 06:50:32;;;;;;;6.87;3.80;;;20.90;56.40;;;;;;5010898;28;20694;-67
2023/12/10 06:52:58;;;;;;;4.80;2.87;;;20.90;56.40;;;;;;5010594;28;20411;-68
2023/12/10 06:55:23;;;;;;;5.20;3.60;;;21.00;56.50;;;;;;5010463;28;20575;-67
2023/12/10 06:57:49;;;;;;;4.97;3.30;;;21.00;56.60;;;;;;5010590;28;20200;-67
2023/12/10 07:00:17;;;;;;;4.33;3.17;;;21.00;56.60;;;;;;5010601;28;20176;-67
2023/12/10 07:02:43;;;;;;;4.27;3.57;;;20.90;56.50;;;;;;5010701;28;20587;-67
2023/12/10 07:05:08;;;;;;;6.40;3.80;;;20.90;56.50;;;;;;5010548;28;20460;-68
2023/12/10 07:07:34;;;;;;;5.13;3.57;;;21.00;56.50;;;;;;5010505;28;20174;-67
2023/12/10 07:09:59;;;;;;;5.33;3.40;;;21.00;56.50;;;;;;5010489;28;20551;-66
2023/12/10 07:12:25;;;;;;;4.47;3.43;;;21.00;56.50;;;;;;5010364;28;20177;-68
2023/12/10 07:14:51;;;;;;;3.83;3.13;;;21.00;56.50;;;;;;5010471;28;20176;-67
2023/12/10 07:17:16;;;;;;;4.97;3.27;;;21.00;56.40;;;;;;5010362;28;21023;-67
2023/12/10 07:19:42;;;;;;;5.40;3.50;;;21.00;56.40;;;;;;5009079;28;20207;-67
2023/12/10 07:22:08;;;;;;;4.27;2.90;;;21.00;56.40;;;;;;5011993;28;20602;-67
2023/12/10 07:24:33;;;;;;;6.87;3.30;;;21.10;56.50;;;;;;5014449;28;20276;-67
2023/12/10 07:27:01;;;;;;;4.47;3.00;;;21.10;56.40;;;;;;5014252;28;20200;-66
2023/12/10 07:29:27;;;;;;;5.57;3.07;;;21.00;56.90;;;;;;5014304;28;20169;-67
2023/12/10 07:31:52;;;;;;;4.20;2.90;;;21.10;56.40;;;;;;5014267;28;20414;-67
2023/12/10 07:34:18;;;;;;;6.20;3.87;;;21.10;56.40;;;;;;5014122;28;20647;-67
2023/12/10 07:36:43;;;;;;;4.53;3.20;;;21.10;56.40;;;;;;5013956;28;20200;-67
2023/12/10 07:39:09;;;;;;;6.77;3.20;;;21.10;56.40;;;;;;5014105;28;20185;-67
2023/12/10 07:41:35;;;;;;;3.60;3.03;;;21.10;56.40;;;;;;5013965;28;20630;-66
2023/12/10 07:44:01;;;;;;;3.73;2.70;;;21.10;56.40;;;;;;5014277;28;20172;-67
2023/12/10 07:46:26;;;;;;;4.37;3.47;;;21.10;56.40;;;;;;5013962;28;20200;-67
2023/12/10 07:48:52;;;;;;;4.70;2.90;;;21.10;56.40;;;;;;5013854;28;20260;-67
2023/12/10 07:51:18;;;;;;;4.10;3.60;;;21.10;56.40;;;;;;5013451;28;20185;-68
2023/12/10 07:53:44;;;;;;;5.80;3.20;;;21.10;56.30;;;;;;5013372;28;20187;-67
2023/12/10 07:56:09;;;;;;;5.90;3.07;;;21.10;56.40;;;;;;5013736;28;20427;-67
2023/12/10 07:58:36;;;;;;;6.53;3.63;;;21.10;56.30;;;;;;5014048;28;20258;-67
2023/12/10 08:01:02;;;;;;;3.87;3.43;;;21.10;56.30;;;;;;5013678;28;20172;-67
2023/12/10 08:03:27;;;;;;;3.83;2.47;;;21.10;56.30;;;;;;5013732;28;20411;-67
2023/12/10 08:05:53;;;;;;;4.53;3.00;;;21.10;56.30;;;;;;5013686;28;20254;-67
2023/12/10 08:08:19;;;;;;;4.87;3.00;;;21.10;56.30;;;;;;5013557;28;20180;-67
2023/12/10 08:10:46;;;;;;;4.33;2.67;;;21.10;56.40;;;;;;5013454;28;20870;-67
2023/12/10 08:13:12;;;;;;;5.77;3.13;;;21.10;56.30;;;;;;5013554;28;20211;-67
2023/12/10 08:15:37;;;;;;;5.17;3.03;;;21.10;56.30;;;;;;5013445;28;20430;-67
2023/12/10 08:18:03;;;;;;;4.07;2.70;;;21.10;56.30;;;;;;5001101;28;20439;-68
2023/12/10 08:20:29;;;;;;;4.17;3.23;;;21.10;56.30;;;;;;4992324;28;20280;-67
2023/12/10 08:22:55;;;;;;;4.53;3.03;;;21.10;56.30;;;;;;4980699;28;20577;-67
2023/12/10 08:25:21;;;;;;;4.27;2.87;;;21.10;56.30;;;;;;4998502;28;20682;-67
2023/12/10 08:27:46;;;;;;;3.90;2.53;;;21.10;56.30;;;;;;4989412;28;20479;-67
2023/12/10 08:30:12;;;;;;;3.50;2.50;;;21.10;56.30;;;;;;5006279;28;20344;-67
2023/12/10 08:32:38;;;;;;;4.90;2.90;;;21.10;56.40;;;;;;4992867;28;20184;-66
2023/12/10 08:35:04;;;;;;;3.70;2.87;;;21.10;56.30;;;;;;4999551;28;20718;-66
2023/12/10 08:37:30;;;;;;;4.30;2.90;;;21.20;56.40;;;;;;4991286;28;20247;-67
2023/12/10 08:39:55;;;;;;;5.87;3.50;;;21.10;56.30;;;;;;5009290;28;20420;-67
2023/12/10 08:42:21;;;;;;;4.07;3.03;;;21.10;56.40;;;;;;5000250;28;20197;-67
2023/12/10 08:44:46;;;;;;;4.37;3.30;;;21.10;56.40;;;;;;5001014;28;20950;-66
2023/12/10 08:47:12;;;;;;;5.10;2.73;;;21.20;56.50;;;;;;5006948;28;20211;-67
2023/12/10 08:49:38;;;;;;;3.63;2.50;;;21.20;56.50;;;;;;4994786;28;20291;-67
2023/12/10 08:52:04;;;;;;;5.20;3.47;;;21.20;56.50;;;;;;4987136;28;20186;-67
2023/12/10 08:54:30;;;;;;;5.80;3.27;;;21.20;56.50;;;;;;5007092;28;20195;-67
2023/12/10 08:56:56;;;;;;;5.73;2.47;;;21.20;56.50;;;;;;5002678;28;20447;-68
2023/12/10 08:59:21;;;;;;;6.33;3.27;;;21.20;56.50;;;;;;4999466;28;20424;-67
2023/12/10 09:01:47;;;;;;;3.60;2.93;;;21.20;56.50;;;;;;5009042;28;20204;-68
2023/12/10 09:04:13;;;;;;;4.03;3.00;;;21.20;56.50;;;;;;4996332;28;20927;-67
2023/12/10 09:06:38;;;;;;;5.00;3.13;;;21.20;56.50;;;;;;4992941;28;20213;-67
2023/12/10 09:09:04;;;;;;;4.57;3.37;;;21.20;56.50;;;;;;5003375;28;20177;-67
2023/12/10 09:11:30;;;;;;;4.33;2.90;;;21.20;56.50;;;;;;5005408;28;20194;-67
2023/12/10 09:13:56;;;;;;;4.03;2.60;;;21.20;56.50;;;;;;4995960;28;20189;-67
2023/12/10 09:16:22;;;;;;;3.80;2.60;;;21.20;56.50;;;;;;5008643;28;20527;-67
2023/12/10 09:18:49;;;;;;;4.93;3.33;;;21.10;56.50;;;;;;4999656;28;20427;-67
2023/12/10 09:21:14;;;;;;;3.70;2.67;;;21.10;56.50;;;;;;5001413;28;20468;-67
2023/12/10 09:23:41;;;;;;;4.23;2.90;;;21.20;56.60;;;;;;5006943;28;20514;-68
2023/12/10 09:26:06;;;;;;;4.10;2.67;;;21.10;56.50;;;;;;4995655;28;20223;-67
2023/12/10 09:28:32;;;;;;;4.50;2.90;;;21.20;56.60;;;;;;5007320;28;20424;-67
2023/12/10 09:30:58;;;;;;;4.40;3.20;;;21.20;56.60;;;;;;4997118;28;20652;-67
2023/12/10 09:33:23;;;;;;;3.90;3.00;;;21.20;56.60;;;;;;4987209;28;20181;-67
2023/12/10 09:35:49;;;;;;;6.23;3.17;;;21.20;56.60;;;;;;5006269;28;20196;-67
2023/12/10 09:38:15;;;;;;;4.90;2.77;;;21.20;56.60;;;;;;4996951;28;20191;-67
2023/12/10 09:40:40;;;;;;;3.93;2.43;;;21.20;56.60;;;;;;5003521;28;20235;-66
2023/12/10 09:43:06;;;;;;;5.27;3.10;;;21.20;56.60;;;;;;5003698;28;20192;-67
2023/12/10 09:45:32;;;;;;;5.60;2.60;;;21.20;56.60;;;;;;4993746;28;20760;-66
2023/12/10 09:47:59;;;;;;;4.70;2.57;;;21.20;56.60;;;;;;4975719;28;20184;-67
2023/12/10 09:50:25;;;;;;;5.17;2.53;;;21.20;56.60;;;;;;4972803;28;20405;-67
2023/12/10 09:52:50;;;;;;;3.33;2.33;;;21.20;56.60;;;;;;4971745;28;20428;-67
2023/12/10 09:55:19;;;;;;;4.30;2.60;;;21.20;56.60;;;;;;4972259;28;20240;-67
2023/12/10 09:57:45;;;;;;;3.63;2.20;;;21.20;56.60;;;;;;4972767;28;20212;-67
2023/12/10 10:00:11;;;;;;;4.10;2.57;;;21.20;56.60;;;;;;4984998;28;20820;-67
2023/12/10 10:02:37;;;;;;;3.90;2.60;;;21.20;56.60;;;;;;5000479;28;20551;-67
2023/12/10 10:05:05;;;;;;;4.27;2.90;;;21.20;56.60;;;;;;5010000;28;20411;-67
2023/12/10 10:07:31;;;;;;;3.40;2.40;;;21.20;56.60;;;;;;5011539;28;20160;-67
2023/12/10 10:09:57;;;;;;;4.23;2.50;;;21.20;56.60;;;;;;5001469;28;20440;-67
2023/12/10 10:12:29;;;;;;;3.47;2.43;;;21.20;56.60;;;;;;4994103;28;20457;-65
2023/12/10 10:14:56;;;;;;;3.70;2.20;;;21.20;56.70;;;;;;4999942;28;20455;-67
2023/12/10 10:17:29;;;;;;;3.90;2.77;;;21.20;56.60;;;;;;5003643;28;20446;-67
2023/12/10 10:19:55;;;;;;;2.83;2.10;;;21.20;56.70;;;;;;4993133;28;20468;-67
2023/12/10 10:22:23;;;;;;;5.57;2.60;;;21.20;56.70;;;;;;4990308;28;20456;-67
2023/12/10 10:24:50;;;;;;;6.50;2.83;;;21.20;56.70;;;;;;4983120;28;20954;-67
2023/12/10 10:27:17;;;;;;;4.20;2.50;;;21.20;56.70;;;;;;4992617;28;20439;-67
2023/12/10 10:29:43;;;;;;;4.23;2.60;;;21.20;56.70;;;;;;4996542;28;20413;-67
2023/12/10 10:32:15;;;;;;;4.53;2.70;;;21.20;56.70;;;;;;5008624;28;20426;-68
2023/12/10 10:34:44;;;;;;;4.20;2.80;;;21.20;56.70;;;;;;4996135;28;20198;-67
2023/12/10 10:37:10;;;;;;;3.50;2.30;;;21.20;56.70;;;;;;5001563;28;20773;-67
2023/12/10 10:39:36;;;;;;;6.53;3.00;;;21.20;56.70;;;;;;5009589;28;20426;-67
2023/12/10 10:42:08;;;;;;;3.30;2.87;;;21.20;56.70;;;;;;4994495;28;20248;-67
2023/12/10 10:44:41;;;;;;;4.57;2.83;;;21.20;56.70;;;;;;4963011;28;20400;-67
2023/12/10 10:47:08;;;;;;;4.13;2.33;;;21.20;56.70;;;;;;5000404;28;20451;-67
2023/12/10 10:49:41;;;;;;;5.00;2.30;;;21.20;56.70;;;;;;4990244;28;20495;-67
2023/12/10 10:52:11;;;;;;;4.77;3.13;;;21.20;56.70;;;;;;4980068;28;20408;-67
2023/12/10 10:54:38;;;;;;;3.33;2.67;;;21.10;56.60;;;;;;5002403;28;20427;-68
2023/12/10 10:57:04;;;;;;;3.20;2.27;;;21.20;56.80;;;;;;4987106;28;20474;-67
2023/12/10 10:59:31;;;;;;;6.23;2.73;;;21.20;56.80;;;;;;4988223;28;20428;-67
2023/12/10 11:02:08;;;;;;;5.53;2.30;;;21.20;56.70;;;;;;4984178;28;20460;-66
2023/12/10 11:04:35;;;;;;;6.20;3.03;;;21.10;56.60;;;;;;4980111;28;20409;-67
2023/12/10 11:07:05;;;;;;;4.40;2.90;;;21.10;56.70;;;;;;4980447;28;20479;-68
2023/12/10 11:09:31;;;;;;;4.70;2.83;;;21.10;56.70;;;;;;4987596;28;20435;-67
2023/12/10 11:11:58;;;;;;;3.63;2.90;;;21.10;56.70;;;;;;4983688;28;20435;-67
2023/12/10 11:14:24;;;;;;;4.50;2.57;;;21.10;56.80;;;;;;5000536;28;20428;-67
2023/12/10 11:16:58;;;;;;;5.07;2.90;;;21.20;56.90;;;;;;5004843;28;20436;-67
2023/12/10 11:19:24;;;;;;;6.23;3.63;;;21.10;56.80;;;;;;5009335;28;20917;-67
2023/12/10 11:21:50;;;;;;;6.47;2.90;;;21.10;56.80;;;;;;4995269;28;20452;-67
2023/12/10 11:24:16;;;;;;;5.63;3.10;;;21.20;56.90;;;;;;5006805;28;20164;-67
2023/12/10 11:26:43;;;;;;;4.43;2.80;;;21.20;56.90;;;;;;4985067;28;20523;-67
2023/12/10 11:29:08;;;;;;;3.43;2.67;;;21.20;56.90;;;;;;4997203;28;20424;-67
2023/12/10 11:31:37;;;;;;;5.80;2.90;;;21.10;56.80;;;;;;4997423;28;20423;-67
2023/12/10 11:34:03;;;;;;;5.70;2.30;;;21.10;56.80;;;;;;5006035;28;20188;-67
2023/12/10 11:36:29;;;;;;;3.77;2.67;;;21.10;56.80;;;;;;4975542;28;20444;-67
2023/12/10 11:38:55;;;;;;;5.53;2.57;;;21.10;56.80;;;;;;5003855;28;20887;-66
2023/12/10 11:41:25;;;;;;;5.50;2.70;;;21.20;56.90;;;;;;4992321;28;20204;-67
2023/12/10 11:43:51;;;;;;;3.93;2.20;;;21.10;56.80;;;;;;4996383;28;20644;-67
2023/12/10 11:46:23;;;;;;;5.57;3.03;;;21.10;56.80;;;;;;5006377;28;20427;-67
2023/12/10 11:48:54;;;;;;;3.30;2.47;;;21.10;56.90;;;;;;4994374;28;20169;-67
2023/12/10 11:51:20;;;;;;;3.20;2.43;;;21.20;57.00;;;;;;5000483;28;20405;-67
2023/12/10 11:53:46;;;;;;;6.20;3.23;;;21.10;56.80;;;;;;5003096;28;20925;-67
2023/12/10 11:56:12;;;;;;;5.90;2.50;;;21.20;57.00;;;;;;4993122;28;20489;-67
2023/12/10 11:58:38;;;;;;;4.90;2.27;;;21.20;56.90;;;;;;4984501;28;20421;-67
2023/12/10 12:01:04;;;;;;;4.33;2.50;;;21.10;56.80;;;;;;4987246;28;20498;-67
2023/12/10 12:03:30;;;;;;;4.43;3.00;;;21.10;56.80;;;;;;4997068;28;20185;-67
2023/12/10 12:05:56;;;;;;;4.70;2.83;;;21.20;56.90;;;;;;4996513;28;20197;-67
2023/12/10 12:08:28;;;;;;;3.87;2.40;;;21.20;57.00;;;;;;5005943;28;20431;-67
2023/12/10 12:10:57;;;;;;;6.90;2.43;;;21.20;56.90;;;;;;4960290;28;20428;-66
2023/12/10 12:13:23;;;;;;;2.67;1.80;;;21.20;56.90;;;;;;4988038;28;20412;-67
2023/12/10 12:15:50;;;;;;;4.27;2.67;;;21.20;56.90;;;;;;4993667;28;20482;-68
2023/12/10 12:18:16;;;;;;;6.10;3.30;;;21.20;56.80;;;;;;4993885;28;20411;-67
2023/12/10 12:20:43;;;;;;;6.30;4.43;;;21.20;56.80;;;;;;4992242;28;20404;-67
2023/12/10 12:23:09;;;;;;;7.20;3.30;;;21.20;56.60;;;;;;5024888;28;20671;-67
2023/12/10 12:25:37;;;;;;;7.13;3.60;;;21.20;56.60;;;;;;5008239;28;20470;-66
2023/12/10 12:28:06;;;;;;;4.37;2.70;;;21.10;56.50;;;;;;4993516;28;20228;-66
2023/12/10 12:30:33;;;;;;;4.07;2.90;;;21.20;56.70;;;;;;4992101;28;20853;-67
2023/12/10 12:32:59;;;;;;;3.83;2.90;;;21.10;56.60;;;;;;4993210;28;20419;-67
2023/12/10 12:35:25;;;;;;;5.17;3.30;;;21.10;56.60;;;;;;4991894;28;20440;-66
2023/12/10 12:37:50;;;;;;;5.03;2.70;;;21.10;56.70;;;;;;5024834;28;20177;-67